CYND

Ottawa / Gatineau Airport

Ottawa, , Canada
METAR CYND 201300Z 25012G17KT 15SM BKN040 10/06 A2941 RMK SC5 SLP963 DENSITY ALT 300FT
Observed Flight Rules
Oct-20 @ 13:00 UTC (22 minutes ago) Visual Flight Rules
Wind Visibility Clouds
250° at 12 knots
 Gusting to 17 knots
15 miles
  • Broken at 4,000' AGL
Temperatures Readings
Current 10°C / 50°F
Dewpoint 6°C / 43°F
Humidity 76%
Altimeter 29.41" Hg
Pressure 996.3 hPa
Elevation 64
METAR CYND 201300Z 25012G17KT 15SM BKN040 10/06 A2941 RMK SC5 SLP963 DENSITY ALT 300FT
Observed Flight Rules
Oct-20 @ 13:00 UTC
(22 minutes ago)
VFR
Wind Visibility
250° at 12 knots
 Gusting to 17 knots
15 miles
Clouds
  • Broken at 4,000' AGL
Temperature Dewpoint
10°C / 50°F 6°C / 43°F
Humidity Altimeter Pressure
76% 29.41" Hg 996.3 hPa